createdAt,value
2023-02-01T00:13:10.439Z,3.05
2023-02-01T00:15:38.947Z,3.37
2023-02-01T00:18:07.334Z,3.36
2023-02-01T00:20:35.970Z,3.34
2023-02-01T00:23:04.262Z,3.28
2023-02-01T00:25:32.875Z,3.16
2023-02-01T00:28:02.049Z,3.05
2023-02-01T00:30:30.935Z,2.94
2023-02-01T00:32:59.216Z,2.82
2023-02-01T00:35:29.611Z,2.71
2023-02-01T00:38:00.290Z,2.61
2023-02-01T00:40:28.856Z,2.50
2023-02-01T00:42:58.964Z,2.37
2023-02-01T00:45:27.359Z,2.26
2023-02-01T00:47:56.370Z,2.15
2023-02-01T00:50:24.793Z,2.06
2023-02-01T00:52:53.858Z,2.06
2023-02-01T00:55:25.276Z,2.09
2023-02-01T00:57:53.855Z,2.13
2023-02-01T01:00:22.520Z,2.15
2023-02-01T01:02:51.232Z,2.19
2023-02-01T01:05:19.969Z,2.19
2023-02-01T01:07:48.223Z,2.16
2023-02-01T01:10:17.188Z,2.12
2023-02-01T01:12:45.467Z,2.07
2023-02-01T01:15:13.683Z,2.01
2023-02-01T01:17:42.272Z,1.94
2023-02-01T01:20:11.395Z,1.87
2023-02-01T01:22:40.008Z,1.79
2023-02-01T01:25:08.491Z,1.72
2023-02-01T01:27:37.275Z,1.63
2023-02-01T01:30:06.484Z,1.57
2023-02-01T01:32:34.751Z,1.52
2023-02-01T01:35:03.233Z,1.53
2023-02-01T01:37:32.840Z,1.57
2023-02-01T01:40:01.516Z,1.61
2023-02-01T01:42:30.078Z,1.66
2023-02-01T01:45:00.010Z,1.71
2023-02-01T01:47:33.421Z,1.72
2023-02-01T01:50:02.655Z,1.71
2023-02-01T01:52:32.334Z,1.68
2023-02-01T01:55:00.935Z,1.63
2023-02-01T01:57:33.077Z,1.57
2023-02-01T02:00:04.646Z,1.50
2023-02-01T02:03:08.445Z,1.41
2023-02-01T02:05:36.722Z,1.33
2023-02-01T02:08:05.411Z,1.26
2023-02-01T02:10:53.252Z,1.20
2023-02-01T02:13:21.833Z,1.16
2023-02-01T02:16:14.518Z,1.19
2023-02-01T02:19:07.743Z,1.25
2023-02-01T02:21:42.161Z,1.31
2023-02-01T02:24:48.530Z,1.37
2023-02-01T02:27:25.639Z,1.43
2023-02-01T02:30:07.511Z,1.44
2023-02-01T02:32:48.894Z,1.42
2023-02-01T02:35:32.331Z,1.38
2023-02-01T02:38:13.606Z,1.34
2023-02-01T02:41:40.060Z,1.30
2023-02-01T02:44:50.497Z,1.24
2023-02-01T02:47:42.455Z,1.21
2023-02-01T02:50:38.116Z,1.18
2023-02-01T02:53:41.565Z,1.14
2023-02-01T02:56:28.890Z,1.18
2023-02-01T02:59:16.315Z,1.25
2023-02-01T03:02:04.754Z,1.32
2023-02-01T03:04:33.450Z,1.39
2023-02-01T03:07:15.798Z,1.44
2023-02-01T03:09:45.364Z,1.44
2023-02-01T03:12:32.381Z,1.42
2023-02-01T03:15:08.392Z,1.39
2023-02-01T03:17:39.429Z,1.37
2023-02-01T03:20:08.831Z,1.36
2023-02-01T03:22:36.979Z,1.36
2023-02-01T03:25:10.967Z,1.37
2023-02-01T03:27:46.550Z,1.37
2023-02-01T03:30:18.971Z,1.35
2023-02-01T03:33:00.312Z,1.32
2023-02-01T03:36:11.253Z,1.33
2023-02-01T03:39:04.619Z,1.40
2023-02-01T03:41:50.102Z,1.48
2023-02-01T03:55:43.644Z,1.82
2023-02-01T03:58:16.670Z,2.30
2023-02-01T04:00:46.141Z,2.33
2023-02-01T04:03:14.256Z,2.33
2023-02-01T04:05:42.473Z,2.27
2023-02-01T04:08:12.028Z,2.15
2023-02-01T04:10:45.937Z,2.06
2023-02-01T04:13:15.651Z,1.96
2023-02-01T04:15:44.332Z,1.90
2023-02-01T04:18:12.362Z,1.86
2023-02-01T04:20:40.792Z,1.83
2023-02-01T04:23:09.170Z,1.80
2023-02-01T04:25:37.489Z,1.77
2023-02-01T04:28:06.173Z,1.74
2023-02-01T04:30:35.009Z,1.72
2023-02-01T04:33:06.378Z,1.69
2023-02-01T04:35:35.264Z,1.67
2023-02-01T04:38:04.571Z,1.71
2023-02-01T04:40:34.681Z,1.79
2023-02-01T04:43:04.801Z,1.87
2023-02-01T04:45:33.090Z,1.96
2023-02-01T04:48:05.387Z,2.04
2023-02-01T04:50:33.625Z,2.08
2023-02-01T04:53:01.696Z,2.07
2023-02-01T04:55:31.861Z,2.06
2023-02-01T04:58:00.614Z,2.02
2023-02-01T05:00:29.192Z,1.98
2023-02-01T05:02:57.596Z,1.94
2023-02-01T05:05:27.435Z,1.90
2023-02-01T05:07:55.905Z,1.84
2023-02-01T05:10:24.380Z,1.79
2023-02-01T05:13:11.771Z,1.75
2023-02-01T05:15:40.205Z,1.72
2023-02-01T05:18:08.832Z,1.75
2023-02-01T05:20:38.238Z,1.79
2023-02-01T05:23:07.026Z,1.82
2023-02-01T05:25:35.407Z,1.83
2023-02-01T05:28:04.216Z,1.82
2023-02-01T05:30:36.424Z,1.82
2023-02-01T05:33:04.832Z,1.81
2023-02-01T05:35:34.250Z,1.78
2023-02-01T05:38:04.468Z,1.75
2023-02-01T05:40:34.233Z,1.72
2023-02-01T05:43:02.401Z,1.67
2023-02-01T05:45:30.938Z,1.64
2023-02-01T05:47:59.526Z,1.67
2023-02-01T05:51:29.611Z,1.69
2023-02-01T05:53:58.247Z,1.85
2023-02-01T05:56:28.636Z,1.93
2023-02-01T05:58:57.111Z,1.96
2023-02-01T06:01:25.794Z,1.96
2023-02-01T06:03:54.554Z,1.91
2023-02-01T06:06:22.889Z,1.92
2023-02-01T06:08:51.550Z,1.93
2023-02-01T06:11:31.741Z,1.90
2023-02-01T06:14:01.739Z,1.84
2023-02-01T06:16:30.063Z,1.80
2023-02-01T06:18:59.413Z,1.77
2023-02-01T06:21:28.195Z,1.81
2023-02-01T06:23:58.763Z,1.82
2023-02-01T06:26:29.602Z,1.87
2023-02-01T06:28:58.391Z,1.91
2023-02-01T06:31:26.900Z,1.94
2023-02-01T06:33:55.715Z,1.95
2023-02-01T06:36:25.013Z,1.95
2023-02-01T06:38:57.740Z,1.95
2023-02-01T06:41:29.259Z,1.95
2023-02-01T06:43:58.037Z,1.95
2023-02-01T06:46:26.424Z,1.96
2023-02-01T06:48:55.523Z,1.96
2023-02-01T06:51:26.359Z,1.97
2023-02-01T06:53:54.694Z,2.01
2023-02-01T06:56:23.107Z,2.13
2023-02-01T06:58:51.487Z,2.17
2023-02-01T07:01:19.962Z,2.19
2023-02-01T07:03:52.268Z,2.20
2023-02-01T07:06:20.832Z,2.18
2023-02-01T07:08:50.424Z,2.16
2023-02-01T07:11:19.671Z,2.18
2023-02-01T07:13:47.868Z,2.17
2023-02-01T07:16:18.580Z,2.16
2023-02-01T07:18:47.000Z,2.17
2023-02-01T07:21:15.309Z,2.20
2023-02-01T07:23:44.083Z,2.33
2023-02-01T07:26:14.663Z,2.50
2023-02-01T07:28:43.423Z,2.62
2023-02-01T07:31:19.995Z,2.79
2023-02-01T07:33:54.012Z,2.94
2023-02-01T07:36:22.250Z,3.02
2023-02-01T07:38:51.965Z,3.01
2023-02-01T07:41:20.279Z,3.05
2023-02-01T07:43:51.905Z,3.06
2023-02-01T07:46:20.080Z,3.09
2023-02-01T07:48:48.456Z,3.14
2023-02-01T07:55:18.388Z,3.29
2023-02-01T07:57:46.841Z,3.52
2023-02-01T08:00:34.517Z,3.66
2023-02-01T08:03:04.824Z,3.67
2023-02-01T08:05:32.990Z,3.66
2023-02-01T08:08:02.140Z,3.64
2023-02-01T08:10:31.295Z,3.59
2023-02-01T08:13:01.111Z,3.55
2023-02-01T08:15:30.407Z,3.49
2023-02-01T08:17:59.600Z,3.46
2023-02-01T08:20:28.495Z,3.42
2023-02-01T08:22:57.391Z,3.52
2023-02-01T08:25:25.775Z,3.64
2023-02-01T08:27:55.581Z,3.73
2023-02-01T08:30:24.173Z,3.74
2023-02-01T08:32:52.643Z,3.75
2023-02-01T08:35:25.776Z,3.77
2023-02-01T08:37:58.926Z,3.80
2023-02-01T08:40:27.517Z,3.84
2023-02-01T08:42:58.136Z,3.88
2023-02-01T08:45:27.359Z,3.86
2023-02-01T08:47:58.922Z,3.83
2023-02-01T08:50:27.556Z,3.81
2023-02-01T08:53:00.478Z,3.83
2023-02-01T09:06:17.959Z,4.20
2023-02-01T09:08:52.392Z,4.26
2023-02-01T09:11:21.113Z,4.18
2023-02-01T09:13:50.485Z,4.15
2023-02-01T09:16:19.011Z,4.15
2023-02-01T09:18:56.017Z,4.15
2023-02-01T09:21:36.083Z,4.16
2023-02-01T09:24:05.278Z,4.22
2023-02-01T09:26:35.582Z,4.25
2023-02-01T09:29:04.705Z,4.26
2023-02-01T09:31:33.974Z,4.32
2023-02-01T09:34:02.348Z,4.37
2023-02-01T09:36:31.339Z,4.47
2023-02-01T09:39:00.021Z,4.57
2023-02-01T09:41:49.950Z,4.61
2023-02-01T09:44:18.173Z,4.71
2023-02-01T09:46:46.698Z,4.74
2023-02-01T09:49:18.071Z,4.72
2023-02-01T09:51:47.758Z,4.71
2023-02-01T09:54:27.863Z,4.70
2023-02-01T09:57:08.178Z,4.64
2023-02-01T09:59:42.401Z,4.56
2023-02-01T10:02:17.472Z,4.48
2023-02-01T10:04:45.526Z,4.42
2023-02-01T10:07:56.064Z,4.33
2023-02-01T10:10:31.160Z,4.22
2023-02-01T10:13:20.271Z,4.14
2023-02-01T10:15:54.238Z,4.06
2023-02-01T10:18:43.439Z,4.01
2023-02-01T10:21:40.113Z,3.98
2023-02-01T10:24:38.778Z,3.90
2023-02-01T10:27:13.864Z,3.79
2023-02-01T10:29:47.200Z,3.70
2023-02-01T10:32:18.591Z,3.66
2023-02-01T10:34:55.940Z,3.63
2023-02-01T10:37:25.752Z,3.60
2023-02-01T10:39:56.388Z,3.56
2023-02-01T10:42:28.245Z,3.50
2023-02-01T10:44:58.772Z,3.45
2023-02-01T10:47:27.156Z,3.42
2023-02-01T10:50:08.123Z,3.39
2023-02-01T10:53:01.433Z,3.37
2023-02-01T10:55:36.116Z,3.36
2023-02-01T10:58:06.846Z,3.35
2023-02-01T11:00:43.623Z,3.34
2023-02-01T11:03:27.993Z,3.33
2023-02-01T11:46:49.110Z,3.29
2023-02-01T11:52:21.148Z,3.35
2023-02-01T11:54:59.683Z,3.51
2023-02-01T11:57:47.905Z,3.52
2023-02-01T12:00:33.724Z,3.52
2023-02-01T12:03:06.661Z,3.55
2023-02-01T12:05:40.926Z,3.59
2023-02-01T12:08:47.476Z,3.55
2023-02-01T12:11:20.261Z,3.46
2023-02-01T12:14:34.896Z,3.40
2023-02-01T12:17:31.359Z,3.33
2023-02-01T12:20:06.180Z,3.32
2023-02-01T12:22:39.417Z,3.40
2023-02-01T12:25:43.190Z,3.44
2023-02-01T12:28:36.651Z,3.43
2023-02-01T12:31:42.344Z,3.42
2023-02-01T12:34:35.560Z,3.40
2023-02-01T12:37:22.479Z,3.35
2023-02-01T12:40:23.247Z,3.27
2023-02-01T12:43:16.144Z,3.22
2023-02-01T12:45:48.051Z,3.17
2023-02-01T12:48:19.220Z,3.17
2023-02-01T12:50:53.495Z,3.26
2023-02-01T12:53:28.513Z,3.34
2023-02-01T12:55:59.848Z,3.38
2023-02-01T12:58:31.971Z,3.36
2023-02-01T13:01:10.106Z,3.32
2023-02-01T13:03:53.997Z,3.25
2023-02-01T13:06:38.962Z,3.19
2023-02-01T13:12:16.214Z,2.95
2023-02-01T13:14:47.564Z,3.11
2023-02-01T13:17:21.271Z,3.20
2023-02-01T13:19:54.107Z,3.28
2023-02-01T13:22:38.089Z,3.31
2023-02-01T13:25:48.185Z,3.30
2023-02-01T13:28:26.723Z,3.29
2023-02-01T13:31:28.851Z,3.23
2023-02-01T13:34:37.516Z,3.18
2023-02-01T13:37:27.811Z,3.13
2023-02-01T13:40:37.455Z,3.08
2023-02-01T13:43:22.340Z,3.05
2023-02-01T13:45:52.447Z,3.04
2023-02-01T13:48:35.360Z,3.08
2023-02-01T13:51:06.301Z,3.14
2023-02-01T13:53:38.467Z,3.15
2023-02-01T13:56:15.807Z,3.16
2023-02-01T13:58:44.958Z,3.14
2023-02-01T14:01:22.711Z,3.07
2023-02-01T14:04:02.080Z,3.03
2023-02-01T14:06:36.390Z,2.98
2023-02-01T14:09:13.239Z,2.93
2023-02-01T14:11:52.006Z,2.91
2023-02-01T14:14:20.281Z,2.95
2023-02-01T14:16:55.084Z,3.00
2023-02-01T14:19:27.895Z,3.04
2023-02-01T14:22:02.829Z,3.07
2023-02-01T14:24:34.897Z,3.07
2023-02-01T14:40:54.943Z,3.38
2023-02-01T14:43:52.163Z,3.78
2023-02-01T14:46:19.938Z,3.76
2023-02-01T14:48:47.659Z,3.71
2023-02-01T14:51:15.595Z,3.63
2023-02-01T14:53:44.109Z,3.57
2023-02-01T14:56:16.861Z,3.49
2023-02-01T14:58:58.760Z,3.38
2023-02-01T15:01:31.395Z,3.31
2023-02-01T15:04:06.061Z,3.29
2023-02-01T15:06:36.041Z,3.31
2023-02-01T15:09:21.156Z,3.38
2023-02-01T15:12:01.831Z,3.40
2023-02-01T15:14:52.115Z,3.36
2023-02-01T15:17:20.717Z,3.28
2023-02-01T15:20:15.919Z,3.22
2023-02-01T15:22:56.806Z,3.16
2023-02-01T15:25:30.303Z,3.12
2023-02-01T15:27:57.840Z,3.06
2023-02-01T15:30:26.830Z,3.00
2023-02-01T15:33:07.220Z,2.95
2023-02-01T15:35:46.013Z,2.97
2023-02-01T15:38:31.286Z,3.04
2023-02-01T15:41:14.546Z,3.10
2023-02-01T15:43:54.112Z,3.16
2023-02-01T15:46:36.393Z,3.20
2023-02-01T15:49:03.173Z,3.20
2023-02-01T15:51:32.959Z,3.19
2023-02-01T15:54:05.176Z,3.19
2023-02-01T15:56:34.999Z,3.16
2023-02-01T15:59:03.691Z,3.14
2023-02-01T16:01:30.906Z,3.18
2023-02-01T16:04:17.646Z,3.21
2023-02-01T16:07:32.616Z,3.26
2023-02-01T16:10:07.442Z,3.28
2023-02-01T16:12:47.557Z,3.28
2023-02-01T16:15:14.797Z,3.26
2023-02-01T16:17:44.094Z,3.23
2023-02-01T16:20:12.950Z,3.22
2023-02-01T16:22:39.802Z,3.17
2023-02-01T16:25:07.304Z,3.14
2023-02-01T16:27:34.292Z,3.10
2023-02-01T16:30:01.344Z,3.09
2023-02-01T16:32:28.596Z,3.10
2023-02-01T16:34:57.298Z,3.15
2023-02-01T16:37:25.147Z,3.19
2023-02-01T16:39:51.999Z,3.24
2023-02-01T16:42:19.040Z,3.24
2023-02-01T16:44:46.101Z,3.21
2023-02-01T16:47:23.577Z,3.19
2023-02-01T16:49:50.758Z,3.15
2023-02-01T16:52:19.439Z,3.11
2023-02-01T16:54:47.246Z,3.09
2023-02-01T16:57:15.439Z,3.14
2023-02-01T16:59:43.017Z,3.22
2023-02-01T17:02:21.437Z,3.27
2023-02-01T17:04:49.327Z,3.30
2023-02-01T17:07:17.820Z,3.29
2023-02-01T17:09:45.994Z,3.26
2023-02-01T17:12:34.646Z,3.21
2023-02-01T17:15:01.593Z,3.15
2023-02-01T17:17:39.577Z,3.09
2023-02-01T17:20:21.739Z,3.10
2023-02-01T17:22:49.219Z,3.16
2023-02-01T17:25:17.498Z,3.20
2023-02-01T17:27:47.515Z,3.24
2023-02-01T17:30:14.671Z,3.27
2023-02-01T17:32:42.188Z,3.28
2023-02-01T17:35:20.595Z,3.24
2023-02-01T17:37:47.801Z,3.21
2023-02-01T17:40:15.245Z,3.19
2023-02-01T17:42:42.257Z,3.21
2023-02-01T17:45:35.974Z,3.26
2023-02-01T17:48:06.907Z,3.31
2023-02-01T17:50:37.473Z,3.33
2023-02-01T17:53:07.758Z,3.33
2023-02-01T17:55:36.269Z,3.34
2023-02-01T17:58:03.327Z,3.34
2023-02-01T18:00:31.983Z,3.34
2023-02-01T18:03:00.049Z,3.32
2023-02-01T18:05:31.400Z,3.29
2023-02-01T18:07:58.668Z,3.24
2023-02-01T18:10:25.430Z,3.23
2023-02-01T18:12:52.340Z,3.25
2023-02-01T18:15:22.113Z,3.26
2023-02-01T18:17:49.514Z,3.28
2023-02-01T18:20:19.866Z,3.29
2023-02-01T18:22:50.051Z,3.28
2023-02-01T18:25:20.144Z,3.24
2023-02-01T18:27:48.286Z,3.17
2023-02-01T18:30:18.771Z,3.09
2023-02-01T18:32:45.923Z,3.04
2023-02-01T18:35:18.591Z,2.97
2023-02-01T18:37:47.155Z,2.91
2023-02-01T18:40:21.412Z,2.89
2023-02-01T18:42:48.405Z,2.93
2023-02-01T18:45:31.575Z,2.95
2023-02-01T18:47:59.440Z,2.94
2023-02-01T18:50:28.247Z,2.90
2023-02-01T18:52:56.011Z,2.87
2023-02-01T18:55:23.575Z,2.85
2023-02-01T18:57:50.890Z,2.84
2023-02-01T19:00:18.780Z,2.82
2023-02-01T19:02:46.205Z,2.79
2023-02-01T19:05:14.374Z,2.78
2023-02-01T19:07:42.207Z,2.83
2023-02-01T19:10:21.702Z,2.92
2023-02-01T19:12:52.557Z,3.00
2023-02-01T19:15:19.483Z,3.07
2023-02-01T19:17:48.105Z,3.13
2023-02-01T19:20:18.098Z,3.18
2023-02-01T19:22:46.170Z,3.19
2023-02-01T19:25:18.478Z,3.19
2023-02-01T19:27:45.551Z,3.19
2023-02-01T19:30:13.560Z,3.17
2023-02-01T19:32:41.380Z,3.11
2023-02-01T19:35:09.640Z,3.05
2023-02-01T19:37:36.365Z,3.01
2023-02-01T19:40:03.866Z,2.96
2023-02-01T19:42:31.173Z,2.99
2023-02-01T19:57:16.798Z,3.41
2023-02-01T19:59:44.877Z,3.92
2023-02-01T20:02:15.563Z,3.85
2023-02-01T20:04:44.669Z,3.74
2023-02-01T20:07:13.348Z,3.65
2023-02-01T20:09:42.042Z,3.61
2023-02-01T20:12:11.333Z,3.60
2023-02-01T20:14:39.512Z,3.60
2023-02-01T20:17:12.503Z,3.57
2023-02-01T20:19:40.883Z,3.49
2023-02-01T20:22:09.783Z,3.42
2023-02-01T20:24:38.912Z,3.34
2023-02-01T20:27:10.211Z,3.26
2023-02-01T20:29:38.336Z,3.18
2023-02-01T20:32:06.686Z,3.14
2023-02-01T20:34:34.891Z,3.16
2023-02-01T20:37:03.479Z,3.20
2023-02-01T20:39:31.858Z,3.23
2023-02-01T20:42:00.455Z,3.25
2023-02-01T20:44:29.190Z,3.24
2023-02-01T20:46:59.050Z,3.20
2023-02-01T20:49:27.428Z,3.15
2023-02-01T20:51:58.065Z,3.11
2023-02-01T20:54:28.664Z,3.07
2023-02-01T20:56:56.786Z,3.04
2023-02-01T20:59:27.003Z,3.02
2023-02-01T21:01:55.477Z,3.05
2023-02-01T21:04:27.522Z,3.09
2023-02-01T21:06:56.745Z,3.14
2023-02-01T21:09:25.324Z,3.19
2023-02-01T21:11:53.527Z,3.20
2023-02-01T21:14:22.515Z,3.19
2023-02-01T21:16:51.386Z,3.17
2023-02-01T21:19:20.527Z,3.16
2023-02-01T21:21:48.974Z,3.16
2023-02-01T21:24:17.347Z,3.15
2023-02-01T21:26:45.897Z,3.14
2023-02-01T21:29:15.230Z,3.13
2023-02-01T21:31:43.924Z,3.19
2023-02-01T21:34:12.397Z,3.28
2023-02-01T21:36:40.677Z,3.37
2023-02-01T21:39:10.948Z,3.46
2023-02-01T21:42:15.014Z,3.51
2023-02-01T21:44:46.279Z,3.57
2023-02-01T21:47:18.967Z,3.58
2023-02-01T21:49:49.471Z,3.55
2023-02-01T21:52:18.301Z,3.50
2023-02-01T21:54:46.640Z,3.46
2023-02-01T21:57:15.130Z,3.48
2023-02-01T22:02:29.393Z,3.55
2023-02-01T22:04:57.919Z,3.63
2023-02-01T22:07:26.146Z,3.61
2023-02-01T22:09:54.417Z,3.56
2023-02-01T22:12:23.327Z,3.51
2023-02-01T22:14:51.685Z,3.48
2023-02-01T22:17:24.876Z,3.43
2023-02-01T22:19:53.358Z,3.47
2023-02-01T22:22:21.939Z,3.51
2023-02-01T22:24:50.420Z,3.55
2023-02-01T22:27:18.602Z,3.57
2023-02-01T22:29:46.972Z,3.54
2023-02-01T22:32:16.585Z,3.52
2023-02-01T22:34:44.757Z,3.52
2023-02-01T22:37:13.019Z,3.50
2023-02-01T22:39:43.355Z,3.49
2023-02-01T22:42:11.937Z,3.53
2023-02-01T22:44:41.364Z,3.59
2023-02-01T22:47:09.934Z,3.64
2023-02-01T22:49:38.499Z,3.66
2023-02-01T22:52:07.007Z,3.65
2023-02-01T22:54:35.865Z,3.63
2023-02-01T22:57:03.954Z,3.60
2023-02-01T22:59:32.628Z,3.56
2023-02-01T23:02:00.893Z,3.52
2023-02-01T23:04:29.474Z,3.49
2023-02-01T23:06:58.773Z,3.44
2023-02-01T23:09:27.155Z,3.40
2023-02-01T23:11:55.658Z,3.45
2023-02-01T23:14:28.005Z,3.56
2023-02-01T23:16:56.584Z,3.63
2023-02-01T23:19:24.832Z,3.72
2023-02-01T23:21:53.548Z,3.77
2023-02-01T23:24:22.745Z,3.82
2023-02-01T23:26:50.857Z,3.84
2023-02-01T23:29:19.190Z,3.84
2023-02-01T23:31:47.607Z,3.83
2023-02-01T23:34:16.056Z,3.80
2023-02-01T23:36:44.432Z,3.78
2023-02-01T23:39:12.788Z,3.76
2023-02-01T23:41:41.292Z,3.83
2023-02-01T23:44:10.191Z,3.91
2023-02-01T23:46:40.256Z,3.98
2023-02-01T23:49:10.322Z,4.04
2023-02-01T23:51:39.418Z,4.06
2023-02-01T23:54:08.619Z,4.05
2023-02-01T23:56:41.703Z,4.01
2023-02-01T23:59:20.572Z,3.96
